NC13 weather

Yorks Field
Ramseur, North Carolina, United States

Public forecast

Using degrees Fahrenheit for public forecast. Weather courtesy of forecast.io.

METAR (pilot weather report)

Closest report is Siler City Municipal Airport, 8.6 nm (15.9 km) ESE. Retrieved 2019/07/19 00:35 UTC (5 minutes ago):

KSCR 190035Z AUTO 00000KT 10SM CLR 27/22 A2995 RMK AO2 T02710221

TAF (pilot weather forecast)

Forecast is more than 12 hours old.

Closest forecast is Piedmont Triad International Airport, 24.5 nm (45.4 km) NNW. Retrieved 2019/07/18 00:36 UTC (1 day ago):

TAF KGSO 182333Z 1900/1924 28005KT P6SM BKN100 BKN250 FM191600 32005KT P6SM SCT040 BKN150